KMKY Airport Information

Runway Information
Runway 17 Length 5000 ft width 100 ft
Elevation 4 ft Threshold 0 ft Heading 168
Runway 35 Length 5000 ft Width 100 ft
Elevation 4 ft Threshold 0 ft Heading 348
Airport Frequencies
Type A/D Name FORT MYERS Frequency 119.75 MHZ
Type AWOS Name AWOS 3 Frequency 120.075 MHZ
Type CLD Name CLNC DEL Frequency 120.8 MHZ
Type UNIC Name CTAF/UNICO Frequency 122.8 MHZ
Airport Navaids
Airport Weather Information & NOTAM
ADDS - METARS form results

(0634 UTC 22 January 2021)
Data provider http://aviationweather.gov/metar/data/
 
METAR text: KMKY 220556Z AUTO 00000KT 10SM CLR 13/12 A3006 RMK AO2 SLP179 T01330122 10172 20128 58009 TSNO $
Conditions at: KMKY (MARCO ISLAND , FL, US) observed 0556 UTC 22 January 2021
Temperature: 13.3°C (56°F)
Dewpoint: 12.2°C (54°F) [RH = 93%]
Pressure (altimeter): 30.06 inches Hg (1018.0 mb)
[Sea-level pressure: 1017.9 mb]
Winds: calm
Visibility: 10 or more miles (16+ km)
Ceiling: at least 12,000 feet AGL
Clouds: sky clear below 12,000 feet AGL
Weather:
SOME DATA ABOVE MAY BE INACCURATE!!!
"$" is an indication the sensor requires maintenance